createdAt,value
2019-06-26T00:00:47.721Z,27.50
2019-06-26T00:03:17.477Z,27.50
2019-06-26T00:05:46.335Z,27.50
2019-06-26T00:08:15.927Z,27.40
2019-06-26T00:10:47.058Z,27.40
2019-06-26T00:13:25.627Z,27.30
2019-06-26T00:15:44.795Z,27.10
2019-06-26T00:18:13.668Z,27.10
2019-06-26T00:20:43.243Z,27.20
2019-06-26T00:23:12.848Z,27.10
2019-06-26T00:25:41.726Z,27.00
2019-06-26T00:28:10.558Z,27.00
2019-06-26T00:30:39.390Z,27.00
2019-06-26T00:33:08.223Z,26.70
2019-06-26T00:35:38.300Z,26.80
2019-06-26T00:40:36.077Z,26.80
2019-06-26T00:43:05.304Z,26.80
2019-06-26T00:45:33.777Z,26.90
2019-06-26T00:48:03.375Z,26.90
2019-06-26T00:50:32.206Z,26.90
2019-06-26T00:53:01.783Z,26.90
2019-06-26T00:55:31.373Z,26.80
2019-06-26T00:58:00.772Z,26.70
2019-06-26T01:00:30.538Z,26.50
2019-06-26T01:02:59.408Z,26.60
2019-06-26T01:05:28.303Z,26.60
2019-06-26T01:07:57.372Z,26.60
2019-06-26T01:10:26.203Z,26.60
2019-06-26T01:12:56.475Z,26.60
2019-06-26T01:15:25.328Z,26.50
2019-06-26T01:17:54.185Z,26.60
2019-06-26T01:20:23.767Z,26.60
2019-06-26T01:22:52.627Z,26.60
2019-06-26T01:25:21.457Z,26.60
2019-06-26T01:27:51.187Z,26.60
2019-06-26T01:30:19.875Z,26.60
2019-06-26T01:32:49.275Z,26.50
2019-06-26T01:37:48.276Z,26.50
2019-06-26T01:40:17.862Z,26.40
2019-06-26T01:42:46.705Z,26.40
2019-06-26T01:45:15.540Z,26.30
2019-06-26T01:47:44.397Z,26.30
2019-06-26T01:50:13.230Z,26.30
2019-06-26T01:52:42.818Z,26.30
2019-06-26T01:55:12.784Z,26.20
2019-06-26T01:57:41.634Z,26.20
2019-06-26T02:02:39.896Z,26.30
2019-06-26T02:05:08.755Z,26.30
2019-06-26T02:07:37.602Z,26.20
2019-06-26T02:12:49.008Z,26.20
2019-06-26T02:15:18.594Z,26.20
2019-06-26T02:17:47.431Z,26.20
2019-06-26T02:20:16.797Z,26.20
2019-06-26T02:22:45.642Z,26.10
2019-06-26T02:25:15.784Z,26.00
2019-06-26T02:27:44.626Z,26.10
2019-06-26T02:30:13.988Z,25.90
2019-06-26T02:32:44.394Z,25.90
2019-06-26T02:35:13.243Z,25.80
2019-06-26T02:37:42.100Z,25.80
2019-06-26T02:40:10.989Z,25.80
2019-06-26T02:42:40.704Z,25.70
2019-06-26T02:45:09.547Z,25.70
2019-06-26T02:47:39.596Z,25.80
2019-06-26T02:50:08.434Z,25.70
2019-06-26T02:52:37.500Z,25.80
2019-06-26T02:55:07.091Z,25.80
2019-06-26T02:57:35.971Z,25.80
2019-06-26T03:00:05.082Z,25.90
2019-06-26T03:02:33.792Z,25.80
2019-06-26T03:05:02.863Z,25.80
2019-06-26T03:07:31.504Z,25.80
2019-06-26T03:10:00.346Z,25.60
2019-06-26T03:12:29.190Z,25.70
2019-06-26T03:15:08.213Z,25.60
2019-06-26T03:17:27.806Z,25.60
2019-06-26T03:19:56.649Z,25.60
2019-06-26T03:22:25.472Z,25.60
2019-06-26T03:24:54.313Z,25.60
2019-06-26T03:27:23.892Z,25.50
2019-06-26T03:29:52.741Z,25.40
2019-06-26T03:32:21.582Z,25.40
2019-06-26T03:34:51.508Z,25.40
2019-06-26T03:37:20.016Z,25.40
2019-06-26T03:39:48.860Z,25.50
2019-06-26T03:42:17.704Z,25.50
2019-06-26T03:44:46.534Z,25.50
2019-06-26T03:47:15.384Z,25.50
2019-06-26T03:49:44.257Z,25.40
2019-06-26T03:52:13.078Z,25.30
2019-06-26T03:54:42.024Z,25.20
2019-06-26T03:57:10.866Z,25.20
2019-06-26T03:59:39.712Z,25.20
2019-06-26T04:02:11.979Z,25.20
2019-06-26T04:04:40.812Z,25.20
2019-06-26T04:07:10.018Z,25.20
2019-06-26T04:09:38.839Z,25.30
2019-06-26T04:12:07.695Z,25.30
2019-06-26T04:14:36.542Z,25.30
2019-06-26T04:17:05.378Z,25.30
2019-06-26T04:22:03.676Z,25.30
2019-06-26T04:24:32.514Z,25.20
2019-06-26T04:27:01.354Z,25.30
2019-06-26T04:29:30.206Z,25.20
2019-06-26T04:32:00.320Z,25.20
2019-06-26T04:34:29.165Z,25.20
2019-06-26T04:36:59.552Z,25.20
2019-06-26T04:39:28.411Z,25.20
2019-06-26T04:41:57.266Z,25.20
2019-06-26T04:44:26.106Z,25.20
2019-06-26T04:46:54.994Z,25.30
2019-06-26T04:49:23.815Z,25.40
2019-06-26T04:51:52.652Z,25.40
2019-06-26T04:54:21.477Z,25.40
2019-06-26T04:56:50.326Z,25.50
2019-06-26T04:59:19.170Z,25.50
2019-06-26T05:04:18.184Z,25.50
2019-06-26T05:06:47.053Z,25.50
2019-06-26T05:09:16.475Z,25.50
2019-06-26T05:11:44.684Z,25.60
2019-06-26T05:14:13.517Z,25.60
2019-06-26T05:16:42.348Z,25.70
2019-06-26T05:19:12.096Z,25.60
2019-06-26T05:21:40.795Z,25.70
2019-06-26T05:24:09.626Z,25.70
2019-06-26T05:26:39.218Z,25.80
2019-06-26T05:29:08.086Z,25.90
2019-06-26T05:31:36.971Z,25.80
2019-06-26T05:34:05.792Z,25.90
2019-06-26T05:36:34.661Z,25.90
2019-06-26T05:39:03.470Z,25.80
2019-06-26T05:41:32.314Z,25.80
2019-06-26T05:44:01.150Z,25.90
2019-06-26T05:46:31.815Z,25.80
2019-06-26T05:48:59.582Z,25.90
2019-06-26T05:51:29.537Z,25.90
2019-06-26T05:53:58.495Z,25.90
2019-06-26T05:56:27.221Z,26.00
2019-06-26T05:58:56.060Z,26.00
2019-06-26T06:01:26.042Z,26.10
2019-06-26T06:03:54.875Z,26.10
2019-06-26T06:06:23.718Z,26.20
2019-06-26T06:08:52.566Z,26.30
2019-06-26T06:11:21.401Z,26.30
2019-06-26T06:13:50.596Z,26.30
2019-06-26T06:16:19.422Z,26.40
2019-06-26T06:18:48.286Z,26.40
2019-06-26T06:21:18.060Z,26.40
2019-06-26T06:23:48.719Z,26.50
2019-06-26T06:26:15.906Z,26.60
2019-06-26T06:28:45.463Z,26.60
2019-06-26T06:31:14.384Z,26.50
2019-06-26T06:33:43.143Z,26.60
2019-06-26T06:36:11.979Z,26.60
2019-06-26T06:38:40.839Z,26.70
2019-06-26T06:41:09.676Z,26.70
2019-06-26T06:43:38.513Z,26.80
2019-06-26T06:46:07.363Z,26.90
2019-06-26T06:48:36.210Z,27.00
2019-06-26T06:51:05.796Z,27.00
2019-06-26T06:53:34.639Z,27.00
2019-06-26T06:56:03.474Z,27.00
2019-06-26T06:58:32.357Z,27.10
2019-06-26T07:01:01.146Z,27.10
2019-06-26T07:03:29.978Z,27.20
2019-06-26T07:05:58.823Z,27.30
2019-06-26T07:08:28.415Z,27.30
2019-06-26T07:10:57.485Z,27.50
2019-06-26T07:13:26.585Z,27.50
2019-06-26T07:15:55.244Z,27.60
2019-06-26T07:18:24.075Z,27.70
2019-06-26T07:20:53.287Z,27.70
2019-06-26T07:23:22.145Z,27.70
2019-06-26T07:25:50.974Z,27.80
2019-06-26T07:28:20.599Z,27.90
2019-06-26T07:30:49.881Z,28.00
2019-06-26T07:33:19.269Z,28.00
2019-06-26T07:35:49.685Z,28.10
2019-06-26T07:38:18.543Z,28.00
2019-06-26T07:40:47.412Z,28.20
2019-06-26T07:43:17.002Z,28.30
2019-06-26T07:45:46.101Z,28.50
2019-06-26T07:48:14.939Z,28.60
2019-06-26T07:50:43.783Z,28.70
2019-06-26T07:53:13.423Z,28.80
2019-06-26T07:55:42.317Z,28.90
2019-06-26T07:58:11.849Z,28.90
2019-06-26T08:00:43.356Z,28.90
2019-06-26T08:03:14.715Z,28.90
2019-06-26T08:05:43.244Z,29.00
2019-06-26T08:08:14.496Z,29.10
2019-06-26T08:10:40.000Z,29.20
2019-06-26T08:13:11.558Z,29.30
2019-06-26T08:15:42.134Z,29.20
2019-06-26T08:18:11.393Z,29.40
2019-06-26T08:20:55.089Z,29.50
2019-06-26T08:23:09.478Z,29.50
2019-06-26T08:25:38.321Z,29.50
2019-06-26T08:28:07.169Z,29.50
2019-06-26T08:30:36.741Z,29.60
2019-06-26T08:33:05.569Z,29.80
2019-06-26T08:35:35.141Z,29.90
2019-06-26T08:38:10.956Z,30.00
2019-06-26T08:40:32.820Z,30.10
2019-06-26T08:43:01.692Z,30.20
2019-06-26T08:45:30.544Z,30.00
2019-06-26T08:48:13.423Z,30.10
2019-06-26T08:50:28.221Z,30.20
2019-06-26T08:52:57.573Z,30.20
2019-06-26T08:55:26.288Z,30.40
2019-06-26T08:57:55.119Z,30.40
2019-06-26T09:00:23.963Z,30.50
2019-06-26T09:02:52.817Z,30.50
2019-06-26T09:05:21.665Z,30.60
2019-06-26T09:07:50.561Z,30.60
2019-06-26T09:10:19.338Z,30.60
2019-06-26T09:12:48.177Z,30.70
2019-06-26T09:15:17.014Z,30.80
2019-06-26T09:17:45.854Z,30.90
2019-06-26T09:20:14.695Z,31.00
2019-06-26T09:22:43.520Z,31.00
2019-06-26T09:25:21.763Z,31.10
2019-06-26T09:27:41.749Z,31.20
2019-06-26T09:30:10.588Z,31.30
2019-06-26T09:32:39.432Z,31.30
2019-06-26T09:35:08.422Z,31.40
2019-06-26T09:37:37.256Z,31.50
2019-06-26T09:40:06.103Z,31.60
2019-06-26T09:42:35.754Z,31.70
2019-06-26T09:45:04.609Z,31.70
2019-06-26T09:47:33.434Z,31.70
2019-06-26T09:50:02.309Z,31.80
2019-06-26T09:52:32.939Z,32.00
2019-06-26T09:55:00.489Z,32.00
2019-06-26T09:57:29.323Z,32.10
2019-06-26T09:59:59.116Z,32.10
2019-06-26T10:02:27.969Z,32.30
2019-06-26T10:04:56.777Z,32.20
2019-06-26T10:07:27.445Z,32.30
2019-06-26T10:09:55.115Z,32.40
2019-06-26T10:12:24.536Z,32.40
2019-06-26T10:14:54.131Z,32.50
2019-06-26T10:17:22.960Z,32.60
2019-06-26T10:19:54.039Z,32.60
2019-06-26T10:22:20.654Z,32.70
2019-06-26T10:24:49.470Z,32.70
2019-06-26T10:27:18.296Z,32.80
2019-06-26T10:29:47.135Z,33.00
2019-06-26T10:32:15.974Z,33.00
2019-06-26T10:34:44.826Z,33.20
2019-06-26T10:37:13.661Z,33.10
2019-06-26T10:39:44.072Z,33.20
2019-06-26T10:42:12.878Z,33.30
2019-06-26T10:44:41.747Z,33.50
2019-06-26T10:47:10.772Z,33.50
2019-06-26T10:49:39.452Z,33.70
2019-06-26T10:52:09.037Z,33.70
2019-06-26T10:54:38.461Z,33.70
2019-06-26T10:57:07.653Z,33.90
2019-06-26T10:59:37.548Z,33.90
2019-06-26T11:02:06.083Z,33.80
2019-06-26T11:04:34.976Z,33.80
2019-06-26T11:07:05.703Z,33.80
2019-06-26T11:09:35.051Z,34.10
2019-06-26T11:12:04.653Z,34.20
2019-06-26T11:14:33.555Z,34.50
2019-06-26T11:17:02.351Z,34.30
2019-06-26T11:19:43.227Z,34.40
2019-06-26T11:24:30.939Z,34.70
2019-06-26T11:26:59.795Z,34.80
2019-06-26T11:29:28.627Z,34.80
2019-06-26T11:31:58.220Z,34.90
2019-06-26T11:34:27.057Z,35.10
2019-06-26T11:37:03.964Z,35.10
2019-06-26T11:39:24.762Z,35.20
2019-06-26T11:41:53.604Z,35.20
2019-06-26T11:44:22.439Z,35.30
2019-06-26T11:46:51.277Z,35.30
2019-06-26T11:49:20.869Z,35.40
2019-06-26T11:51:49.712Z,35.40
2019-06-26T11:54:18.547Z,35.50
2019-06-26T11:56:47.406Z,35.60
2019-06-26T11:59:16.258Z,35.60
2019-06-26T12:01:45.140Z,35.70
2019-06-26T12:04:13.983Z,35.70
2019-06-26T12:06:45.952Z,35.80
2019-06-26T12:09:11.856Z,35.90
2019-06-26T12:11:40.719Z,35.70
2019-06-26T12:14:10.308Z,35.90
2019-06-26T12:16:39.115Z,36.00
2019-06-26T12:19:08.032Z,36.10
2019-06-26T12:21:37.571Z,36.30
2019-06-26T12:24:06.403Z,36.30
2019-06-26T12:26:35.244Z,36.40
2019-06-26T12:31:33.941Z,36.40
2019-06-26T12:34:03.703Z,36.60
2019-06-26T12:36:32.527Z,36.70
2019-06-26T12:39:01.394Z,36.60
2019-06-26T12:41:30.230Z,36.70
2019-06-26T12:44:00.191Z,36.90
2019-06-26T12:46:29.732Z,37.00
2019-06-26T12:48:58.621Z,37.10
2019-06-26T12:51:27.506Z,37.20
2019-06-26T12:53:58.491Z,37.30
2019-06-26T12:56:25.161Z,37.30
2019-06-26T12:58:53.974Z,37.40
2019-06-26T13:01:25.284Z,37.60
2019-06-26T13:03:53.169Z,37.80
2019-06-26T13:06:22.010Z,37.80
2019-06-26T13:08:51.615Z,37.60
2019-06-26T13:11:22.365Z,37.80
2019-06-26T13:14:02.186Z,37.80
2019-06-26T13:16:21.152Z,38.10
2019-06-26T13:18:50.040Z,37.90
2019-06-26T13:21:18.827Z,38.00
2019-06-26T13:23:47.684Z,37.90
2019-06-26T13:26:16.509Z,37.80
2019-06-26T13:28:45.553Z,37.80
2019-06-26T13:31:14.399Z,38.10
2019-06-26T13:33:43.998Z,38.30
2019-06-26T13:36:12.835Z,38.60
2019-06-26T13:38:41.695Z,38.80
2019-06-26T13:41:10.531Z,38.80
2019-06-26T13:43:39.422Z,38.90
2019-06-26T13:46:08.235Z,39.00
2019-06-26T13:48:37.079Z,39.00
2019-06-26T13:51:09.802Z,39.10
2019-06-26T13:53:34.798Z,39.00
2019-06-26T13:56:03.625Z,39.10
2019-06-26T13:58:34.004Z,39.20
2019-06-26T14:01:02.854Z,39.30
2019-06-26T14:03:31.823Z,39.50
2019-06-26T14:06:01.411Z,39.20
2019-06-26T14:08:32.886Z,39.20
2019-06-26T14:10:59.866Z,39.30
2019-06-26T14:13:29.131Z,39.40
2019-06-26T14:15:58.021Z,39.50
2019-06-26T14:18:30.190Z,39.40
2019-06-26T14:20:55.705Z,39.60
2019-06-26T14:23:24.550Z,39.70
2019-06-26T14:25:53.377Z,39.80
2019-06-26T14:28:22.201Z,39.80
2019-06-26T14:30:51.043Z,40.00
2019-06-26T14:33:19.891Z,40.10
2019-06-26T14:35:48.730Z,40.20
2019-06-26T14:38:17.563Z,40.20
2019-06-26T14:40:48.424Z,40.10
2019-06-26T14:43:17.263Z,39.80
2019-06-26T14:45:46.097Z,39.90
2019-06-26T14:48:14.930Z,40.00
2019-06-26T14:50:43.764Z,40.10
2019-06-26T14:53:12.602Z,40.00
2019-06-26T14:55:41.424Z,39.90
2019-06-26T14:58:10.509Z,40.00
2019-06-26T15:00:39.334Z,40.00
2019-06-26T15:03:08.164Z,40.10
2019-06-26T15:05:37.012Z,40.20
2019-06-26T15:08:05.868Z,40.10
2019-06-26T15:10:35.123Z,40.20
2019-06-26T15:13:05.186Z,40.30
2019-06-26T15:15:34.038Z,40.10
2019-06-26T15:18:03.758Z,40.30
2019-06-26T15:20:32.612Z,40.50
2019-06-26T15:23:01.464Z,40.60
2019-06-26T15:25:30.532Z,41.00
2019-06-26T15:27:59.124Z,40.90
2019-06-26T15:30:28.472Z,41.00
2019-06-26T15:32:57.315Z,40.60
2019-06-26T15:35:26.183Z,40.50
2019-06-26T15:37:55.033Z,40.50
2019-06-26T15:40:23.884Z,40.60
2019-06-26T15:42:52.757Z,40.60
2019-06-26T15:45:21.589Z,40.50
2019-06-26T15:47:50.501Z,40.60
2019-06-26T15:50:19.252Z,40.40
2019-06-26T15:52:48.100Z,40.60
2019-06-26T15:55:17.303Z,40.60
2019-06-26T15:57:46.487Z,40.70
2019-06-26T16:00:15.348Z,40.60
2019-06-26T16:02:44.901Z,40.60
2019-06-26T16:05:13.745Z,40.70
2019-06-26T16:07:42.594Z,40.70
2019-06-26T16:12:40.877Z,40.50
2019-06-26T16:15:09.705Z,40.50
2019-06-26T16:17:42.435Z,40.60
2019-06-26T16:20:11.272Z,40.60
2019-06-26T16:22:40.117Z,40.50
2019-06-26T16:25:09.290Z,40.60
2019-06-26T16:27:38.134Z,40.50
2019-06-26T16:30:07.743Z,40.50
2019-06-26T16:32:36.586Z,40.60
2019-06-26T16:35:06.613Z,40.50
2019-06-26T16:37:35.197Z,40.50
2019-06-26T16:40:04.078Z,40.60
2019-06-26T16:42:32.903Z,40.50
2019-06-26T16:45:02.504Z,40.40
2019-06-26T16:47:31.344Z,40.40
2019-06-26T16:50:00.196Z,40.30
2019-06-26T16:52:29.787Z,40.30
2019-06-26T16:54:58.618Z,40.30
2019-06-26T16:57:27.490Z,40.10
2019-06-26T17:00:08.999Z,39.90
2019-06-26T17:04:55.366Z,39.40
2019-06-26T17:07:24.955Z,39.30
2019-06-26T17:12:23.249Z,39.10
2019-06-26T17:14:52.106Z,38.90
2019-06-26T17:17:24.066Z,38.70
2019-06-26T17:19:52.913Z,38.60
2019-06-26T17:22:21.745Z,38.50
2019-06-26T17:24:50.625Z,38.40
2019-06-26T17:27:19.467Z,38.30
2019-06-26T17:29:48.948Z,38.20
2019-06-26T17:32:18.677Z,38.10
2019-06-26T17:34:47.559Z,37.90
2019-06-26T17:37:16.404Z,37.90
2019-06-26T17:39:45.275Z,37.70
2019-06-26T17:42:14.134Z,37.50
2019-06-26T17:44:43.034Z,37.50
2019-06-26T17:47:12.852Z,37.30
2019-06-26T17:49:42.525Z,37.10
2019-06-26T17:52:11.357Z,37.00
2019-06-26T17:54:40.458Z,36.90
2019-06-26T17:57:10.368Z,36.80
2019-06-26T17:59:39.944Z,36.70
2019-06-26T18:02:08.767Z,36.70
2019-06-26T18:04:38.353Z,36.50
2019-06-26T18:07:07.210Z,36.40
2019-06-26T18:09:36.048Z,36.30
2019-06-26T18:12:05.635Z,36.30
2019-06-26T18:14:35.230Z,36.20
2019-06-26T18:17:04.104Z,36.10
2019-06-26T18:19:32.913Z,36.10
2019-06-26T18:24:31.204Z,35.90
2019-06-26T18:27:01.069Z,35.80
2019-06-26T18:29:29.891Z,35.90
2019-06-26T18:31:58.730Z,35.80
2019-06-26T18:34:27.598Z,35.70
2019-06-26T18:36:56.440Z,35.70
2019-06-26T18:39:25.543Z,35.60
2019-06-26T18:41:55.086Z,35.50
2019-06-26T18:44:23.943Z,35.50
2019-06-26T18:46:52.799Z,35.40
2019-06-26T18:49:21.620Z,35.30
2019-06-26T18:51:50.450Z,35.30
2019-06-26T18:54:20.047Z,35.20
2019-06-26T18:56:48.894Z,35.20
2019-06-26T18:59:17.760Z,35.00
2019-06-26T19:01:46.611Z,35.00
2019-06-26T19:04:15.459Z,35.00
2019-06-26T19:06:45.677Z,34.90
2019-06-26T19:09:14.507Z,34.80
2019-06-26T19:11:43.390Z,34.70
2019-06-26T19:14:12.780Z,34.60
2019-06-26T19:16:43.423Z,34.60
2019-06-26T19:19:12.340Z,34.50
2019-06-26T19:21:39.764Z,34.40
2019-06-26T19:24:10.439Z,34.30
2019-06-26T19:26:37.468Z,34.20
2019-06-26T19:29:06.308Z,34.10
2019-06-26T19:31:35.186Z,34.00
2019-06-26T19:34:04.179Z,33.90
2019-06-26T19:36:48.801Z,33.70
2019-06-26T19:39:01.900Z,33.60
2019-06-26T19:41:30.748Z,33.50
2019-06-26T19:43:59.588Z,33.40
2019-06-26T19:46:28.459Z,33.40
2019-06-26T19:48:57.746Z,33.30
2019-06-26T19:51:32.206Z,33.30
2019-06-26T19:54:01.046Z,33.30
2019-06-26T19:56:30.296Z,33.30
2019-06-26T19:58:59.136Z,33.30
2019-06-26T20:01:27.979Z,33.30
2019-06-26T20:03:57.236Z,33.20
2019-06-26T20:06:26.071Z,33.20
2019-06-26T20:08:57.655Z,33.00
2019-06-26T20:11:23.739Z,33.00
2019-06-26T20:13:54.275Z,32.80
2019-06-26T20:16:21.468Z,32.80
2019-06-26T20:18:50.320Z,32.70
2019-06-26T20:23:58.931Z,32.70
2019-06-26T20:26:27.752Z,32.60
2019-06-26T20:28:56.605Z,32.60
2019-06-26T20:31:25.954Z,32.50
2019-06-26T20:33:54.350Z,32.40
2019-06-26T20:36:23.614Z,32.40
2019-06-26T20:38:52.476Z,32.30
2019-06-26T20:41:21.328Z,32.30
2019-06-26T20:43:50.187Z,31.80
2019-06-26T20:46:19.044Z,31.20
2019-06-26T20:48:47.924Z,31.10
2019-06-26T20:51:20.562Z,31.20
2019-06-26T20:53:46.319Z,31.30
2019-06-26T20:56:15.166Z,31.30
2019-06-26T20:58:44.030Z,31.30
2019-06-26T21:01:12.867Z,31.30
2019-06-26T21:03:41.722Z,31.30
2019-06-26T21:06:10.646Z,31.20
2019-06-26T21:08:39.444Z,31.30
2019-06-26T21:11:08.270Z,31.20
2019-06-26T21:13:37.997Z,31.20
2019-06-26T21:16:06.838Z,31.20
2019-06-26T21:18:36.874Z,31.10
2019-06-26T21:21:04.727Z,31.00
2019-06-26T21:23:33.362Z,31.00
2019-06-26T21:26:02.908Z,31.10
2019-06-26T21:28:33.836Z,31.00
2019-06-26T21:31:02.624Z,31.00
2019-06-26T21:33:31.460Z,31.00
2019-06-26T21:36:01.364Z,31.10
2019-06-26T21:38:30.956Z,31.00
2019-06-26T21:43:29.654Z,30.90
2019-06-26T21:45:58.531Z,30.90
2019-06-26T21:48:27.464Z,30.80
2019-06-26T21:50:58.392Z,30.80
2019-06-26T21:53:26.649Z,30.70
2019-06-26T21:59:45.856Z,30.50
2019-06-26T22:02:14.706Z,30.40
2019-06-26T22:04:43.556Z,30.40
2019-06-26T22:07:12.398Z,30.40
2019-06-26T22:09:41.251Z,30.40
2019-06-26T22:12:10.090Z,30.40
2019-06-26T22:14:40.505Z,30.30
2019-06-26T22:17:09.338Z,30.30
2019-06-26T22:19:38.187Z,30.20
2019-06-26T22:22:07.038Z,30.20
2019-06-26T22:24:35.890Z,30.20
2019-06-26T22:27:05.475Z,30.10
2019-06-26T22:29:34.323Z,30.10
2019-06-26T22:32:03.171Z,30.10
2019-06-26T22:34:32.008Z,30.10
2019-06-26T22:37:00.844Z,30.10
2019-06-26T22:39:29.708Z,30.00
2019-06-26T22:41:58.528Z,30.00
2019-06-26T22:44:28.154Z,29.90
2019-06-26T22:46:57.092Z,30.00
2019-06-26T22:49:26.140Z,29.90
2019-06-26T22:51:54.949Z,29.80
2019-06-26T22:54:23.799Z,29.80
2019-06-26T22:56:52.647Z,29.80
2019-06-26T22:59:21.511Z,29.70
2019-06-26T23:01:50.342Z,29.70
2019-06-26T23:04:19.227Z,29.70
2019-06-26T23:06:48.014Z,29.60
2019-06-26T23:09:16.848Z,29.60
2019-06-26T23:11:45.696Z,29.60
2019-06-26T23:14:15.094Z,29.50
2019-06-26T23:16:44.087Z,29.50
2019-06-26T23:19:15.027Z,29.40
2019-06-26T23:21:41.785Z,29.30
2019-06-26T23:24:10.641Z,29.30
2019-06-26T23:26:39.491Z,29.20
2019-06-26T23:29:08.344Z,29.20
2019-06-26T23:31:37.186Z,29.20
2019-06-26T23:34:06.025Z,29.20
2019-06-26T23:36:34.874Z,29.10
2019-06-26T23:39:03.969Z,29.10
2019-06-26T23:41:32.815Z,29.00
2019-06-26T23:44:02.409Z,29.00
2019-06-26T23:46:31.254Z,29.00
2019-06-26T23:49:00.565Z,28.80
2019-06-26T23:51:29.437Z,28.80
2019-06-26T23:53:58.241Z,28.80
2019-06-26T23:56:40.075Z,28.90
2019-06-26T23:58:56.469Z,28.80
